Time;durP1;ratioP1;P1;durP2;ratioP2;P2;SDS_P1;SDS_P2;PMS_P1;PMS_P2;Temp;Humidity;BMP_temperature;BMP_pressure;BME280_temperature;BME280_humidity;BME280_pressure;Samples;Min_cycle;Max_cycle;Signal;HPM_P1;HPM_P2
2023/08/14 00:01:54;;;;;;;;;1.00;1.00;;;;;28.16;41.38;101320.91;5078146;27;45376;-76
2023/08/14 00:04:19;;;;;;;;;1.00;1.00;;;;;28.18;41.72;101321.50;5078730;28;45462;-76
2023/08/14 00:06:45;;;;;;;;;0.00;0.00;;;;;28.22;41.70;101321.09;5078464;27;46378;-76
2023/08/14 00:09:10;;;;;;;;;0.00;0.00;;;;;28.18;41.61;101308.13;5076716;27;45506;-76
2023/08/14 00:11:36;;;;;;;;;2.00;0.67;;;;;28.21;41.71;101317.56;5078900;27;45386;-76
2023/08/14 00:14:01;;;;;;;;;0.67;0.67;;;;;28.17;41.66;101313.69;5060459;28;45607;-76
2023/08/14 00:16:27;;;;;;;;;1.33;1.00;;;;;28.20;41.23;101318.63;5059845;28;48315;-76
2023/08/14 00:18:53;;;;;;;;;1.00;1.00;;;;;28.17;41.26;101319.88;5060162;28;45820;-76
2023/08/14 00:21:18;;;;;;;;;0.00;0.00;;;;;28.16;41.40;101310.19;5078513;27;45379;-76
2023/08/14 00:23:44;;;;;;;;;0.00;0.00;;;;;28.15;41.48;101305.91;5060335;28;45578;-76
2023/08/14 00:26:12;;;;;;;;;0.00;0.00;;;;;28.15;41.68;101302.38;5060077;28;46121;-75
2023/08/14 00:28:37;;;;;;;;;1.00;0.00;;;;;28.20;41.93;101307.09;5077881;27;45305;-76
2023/08/14 00:31:02;;;;;;;;;0.00;0.00;;;;;28.15;41.52;101305.91;5059725;27;45275;-76
2023/08/14 00:33:28;;;;;;;;;1.00;1.00;;;;;28.16;41.76;101304.00;5060242;28;45386;-76
2023/08/14 00:35:53;;;;;;;;;1.00;1.00;;;;;28.16;41.40;101298.66;5078082;27;46711;-76
2023/08/14 00:38:19;;;;;;;;;2.00;0.67;;;;;28.18;41.73;101294.75;5078386;27;45447;-76
2023/08/14 00:40:44;;;;;;;;;0.00;0.00;;;;;28.16;41.74;101296.81;5077809;28;45588;-76
2023/08/14 00:43:09;;;;;;;;;1.33;0.00;;;;;28.12;41.74;101292.94;5078126;28;45351;-76
2023/08/14 00:45:35;;;;;;;;;0.00;0.00;;;;;28.14;41.85;101290.88;5059311;28;47295;-76
2023/08/14 00:48:01;;;;;;;;;0.00;0.00;;;;;28.15;41.52;101289.00;5078211;28;45382;-76
2023/08/14 00:50:26;;;;;;;;;0.00;0.00;;;;;28.15;41.84;101281.00;5078206;28;45309;-76
2023/08/14 00:52:55;;;;;;;;;0.00;0.00;;;;;28.15;41.63;101283.66;5077234;27;45653;-76
2023/08/14 00:55:25;;;;;;;;;0.00;0.00;;;;;28.15;41.55;101279.16;5076578;27;47692;-76
2023/08/14 00:57:52;;;;;;;;;0.00;0.00;;;;;28.19;41.78;101279.53;5077218;27;45334;-76
2023/08/14 01:00:17;;;;;;;;;1.33;1.33;;;;;28.16;41.23;101278.09;5077592;28;45434;-76
2023/08/14 01:02:43;;;;;;;;;0.00;0.00;;;;;28.20;41.50;101278.50;5077800;28;45386;-76
2023/08/14 01:05:09;;;;;;;;;0.00;0.00;;;;;28.18;42.05;101264.53;5077312;27;46188;-76
2023/08/14 01:07:34;;;;;;;;;1.00;0.00;;;;;28.15;42.05;101260.41;5076134;27;45450;-76
2023/08/14 01:10:02;;;;;;;;;0.00;0.00;;;;;28.18;41.57;101259.19;5077805;27;45340;-76
2023/08/14 01:12:55;;;;;;;;;1.00;1.00;;;;;28.17;41.13;101258.34;5077338;27;45480;-76
2023/08/14 01:15:27;;;;;;;;;0.33;0.33;;;;;28.20;41.59;101265.13;5059226;28;45768;-76
2023/08/14 01:17:57;;;;;;;;;0.00;0.00;;;;;28.18;42.05;101259.19;5059453;28;45376;-76
2023/08/14 01:20:27;;;;;;;;;0.00;0.00;;;;;28.16;41.42;101248.66;5076623;27;45486;-75
2023/08/14 01:23:04;;;;;;;;;0.00;0.00;;;;;28.20;41.35;101250.91;5077431;27;45340;-76
2023/08/14 01:25:37;;;;;;;;;0.33;0.33;;;;;28.12;41.72;101241.28;5077368;28;46640;-76
2023/08/14 01:28:04;;;;;;;;;1.00;1.00;;;;;28.16;41.74;101248.66;5077031;27;45403;-76
2023/08/14 01:30:29;;;;;;;;;0.00;0.00;;;;;28.11;41.50;101245.81;5058861;27;45430;-76
2023/08/14 01:32:55;;;;;;;;;0.00;0.00;;;;;28.14;41.40;101245.38;5076031;28;45297;-76
2023/08/14 01:35:23;;;;;;;;;0.00;0.00;;;;;28.16;41.81;101239.81;5077371;28;45336;-76
2023/08/14 01:38:02;;;;;;;;;0.00;0.00;;;;;28.16;41.80;101239.81;5076411;27;45336;-76
2023/08/14 01:40:40;;;;;;;;;0.00;0.00;;;;;28.11;41.75;101223.59;5059262;28;45338;-76
2023/08/14 01:43:14;;;;;;;;;0.00;0.00;;;;;28.15;41.81;101225.66;5076844;27;45331;-77
2023/08/14 01:45:41;;;;;;;;;1.00;1.00;;;;;28.14;41.79;101212.47;5077061;28;45577;-76
2023/08/14 01:48:08;;;;;;;;;0.00;0.00;;;;;28.18;41.63;101227.06;5077140;27;45214;-76
2023/08/14 01:50:35;;;;;;;;;0.67;0.00;;;;;28.16;41.38;101213.91;5077255;28;45226;-77
2023/08/14 01:53:01;;;;;;;;;0.00;0.00;;;;;28.17;41.36;101214.72;5077021;27;45595;-76
2023/08/14 01:55:26;;;;;;;;;0.00;0.00;;;;;28.14;41.63;101207.94;5075475;27;46871;-77
2023/08/14 01:57:52;;;;;;;;;0.33;0.33;;;;;28.17;41.89;101215.53;5076634;27;45517;-76
2023/08/14 02:00:18;;;;;;;;;0.00;0.00;;;;;28.17;41.30;101215.53;5077129;28;45329;-76
2023/08/14 02:02:44;;;;;;;;;0.67;0.67;;;;;28.17;41.66;101222.75;5075345;28;45390;-76
2023/08/14 02:05:09;;;;;;;;;0.00;0.00;;;;;28.16;41.58;101223.75;5058301;28;46402;-76
2023/08/14 02:07:34;;;;;;;;;0.00;0.00;;;;;28.18;41.95;101227.06;5058691;28;45492;-77
2023/08/14 02:10:00;;;;;;;;;0.00;0.00;;;;;28.16;41.68;101221.09;5076940;27;45466;-77
2023/08/14 02:12:25;;;;;;;;;0.00;0.00;;;;;28.15;41.84;101228.31;5057860;27;45457;-76
2023/08/14 02:14:51;;;;;;;;;0.00;0.00;;;;;28.14;41.25;101224.00;5076620;27;47393;-77
2023/08/14 02:17:16;;;;;;;;;0.00;0.00;;;;;28.18;41.43;101227.06;5058250;28;45396;-76
2023/08/14 02:19:41;;;;;;;;;0.00;0.00;;;;;28.11;41.94;101212.88;5058616;28;45467;-77
2023/08/14 02:22:07;;;;;;;;;0.00;0.00;;;;;28.18;41.13;101227.88;5058695;28;45471;-77
2023/08/14 02:24:32;;;;;;;;;1.00;0.00;;;;;28.14;41.21;101213.28;5076398;27;45552;-77
2023/08/14 02:26:57;;;;;;;;;0.00;0.00;;;;;28.15;41.85;101220.28;5076177;27;45458;-76
2023/08/14 02:29:23;;;;;;;;;0.67;0.67;;;;;28.16;41.10;101219.25;5058413;28;45254;-76
2023/08/14 02:31:50;;;;;;;;;1.00;0.00;;;;;28.18;41.82;101224.41;5058420;28;45354;-77
2023/08/14 02:34:32;;;;;;;;;0.67;0.67;;;;;28.14;41.49;101223.16;5076497;28;47450;-76
2023/08/14 02:36:57;;;;;;;;;1.00;1.00;;;;;28.13;40.84;101219.66;5075713;28;45386;-76
2023/08/14 02:39:23;;;;;;;;;0.00;0.00;;;;;28.10;41.44;101224.63;5057635;28;45334;-76
2023/08/14 02:41:48;;;;;;;;;2.00;0.00;;;;;28.12;41.91;101222.56;5076505;28;45277;-76
2023/08/14 02:44:13;;;;;;;;;0.00;0.00;;;;;28.14;41.41;101224.00;5075868;28;46390;-76
2023/08/14 02:46:39;;;;;;;;;1.00;0.33;;;;;28.13;41.48;101230.38;5075121;28;45337;-76
2023/08/14 02:49:04;;;;;;;;;0.00;0.00;;;;;28.14;41.50;101225.84;5058224;28;45372;-76
2023/08/14 02:51:29;;;;;;;;;0.00;0.00;;;;;28.15;41.03;101214.13;5076331;27;45404;-76
2023/08/14 02:53:55;;;;;;;;;1.00;1.00;;;;;28.12;41.18;101211.88;5054391;28;46807;-77
2023/08/14 02:56:20;;;;;;;;;0.33;0.33;;;;;28.09;41.48;101199.75;5037733;28;45435;-77
2023/08/14 02:58:45;;;;;;;;;1.00;1.00;;;;;28.14;41.67;101224.00;5056091;28;45292;-76
2023/08/14 03:01:11;;;;;;;;;0.00;0.00;;;;;28.13;41.61;101211.63;5056117;28;45378;-76
2023/08/14 03:03:36;;;;;;;;;0.00;0.00;;;;;28.16;41.24;101216.56;5054275;28;46746;-76
2023/08/14 03:06:01;;;;;;;;;0.67;0.67;;;;;28.16;41.31;101213.91;5054523;28;45418;-76
2023/08/14 03:08:27;;;;;;;;;0.00;0.00;;;;;28.12;41.32;101209.19;5054309;28;45577;-77
2023/08/14 03:10:53;;;;;;;;;0.33;0.33;;;;;28.14;41.32;101199.91;5075522;27;45379;-76
2023/08/14 03:13:18;;;;;;;;;0.00;0.00;;;;;28.10;41.12;101190.69;5075894;27;45482;-76
2023/08/14 03:15:43;;;;;;;;;0.00;0.00;;;;;28.11;41.56;101188.81;5057180;28;45430;-76
2023/08/14 03:18:09;;;;;;;;;0.33;0.33;;;;;28.11;41.14;101189.63;5076159;27;45583;-76
2023/08/14 03:20:34;;;;;;;;;1.00;1.00;;;;;28.07;41.15;101199.13;5057855;28;45516;-76
2023/08/14 03:22:59;;;;;;;;;0.00;0.00;;;;;28.13;41.77;101200.94;5075269;28;45348;-77
2023/08/14 03:25:25;;;;;;;;;0.00;0.00;;;;;28.06;41.22;101192.13;5057568;28;45388;-76
2023/08/14 03:27:51;;;;;;;;;1.00;1.00;;;;;28.13;41.40;101198.28;5075242;27;45236;-76
2023/08/14 03:30:16;;;;;;;;;0.67;0.67;;;;;28.10;41.16;101195.22;5057643;28;45224;-76
2023/08/14 03:32:42;;;;;;;;;0.00;0.00;;;;;27.95;41.42;101167.72;5057499;28;46139;-76
2023/08/14 03:35:08;;;;;;;;;0.33;0.33;;;;;28.05;41.24;101180.63;5057527;28;45378;-76
2023/08/14 03:37:34;;;;;;;;;0.67;0.67;;;;;28.09;41.09;101199.75;5057364;28;45303;-76
2023/08/14 03:39:59;;;;;;;;;0.00;0.00;;;;;28.12;41.23;101182.44;5075923;27;45296;-76
2023/08/14 03:42:25;;;;;;;;;2.00;1.00;;;;;28.05;41.29;101167.25;5056920;28;46882;-76
2023/08/14 03:44:50;;;;;;;;;0.00;0.00;;;;;28.11;41.76;101168.25;5057413;28;45271;-76
2023/08/14 03:47:15;;;;;;;;;0.00;0.00;;;;;28.00;41.14;101155.56;5075731;28;45297;-76
2023/08/14 03:49:41;;;;;;;;;0.00;0.00;;;;;28.02;41.71;101157.00;5075958;27;45566;-76
2023/08/14 03:52:06;;;;;;;;;1.00;1.00;;;;;28.11;41.55;101167.41;5056733;28;47425;-76
2023/08/14 03:54:31;;;;;;;;;0.00;0.00;;;;;28.08;41.15;101168.66;5075340;27;45474;-76
2023/08/14 03:56:57;;;;;;;;;0.00;0.00;;;;;28.08;41.39;101163.31;5077089;27;45394;-76
2023/08/14 03:59:22;;;;;;;;;0.33;0.33;;;;;28.13;41.47;101163.50;5079119;28;45309;-76
2023/08/14 04:01:48;;;;;;;;;0.00;0.00;;;;;28.10;41.23;101163.13;5077573;28;47079;-76
2023/08/14 04:04:13;;;;;;;;;0.00;0.00;;;;;28.13;41.51;101160.81;5077518;27;45378;-76
2023/08/14 04:06:38;;;;;;;;;0.67;0.33;;;;;28.13;41.53;101165.38;5059678;28;45459;-76
2023/08/14 04:09:05;;;;;;;;;0.00;0.00;;;;;28.01;41.41;101150.00;5078623;27;45351;-76
2023/08/14 04:11:32;;;;;;;;;1.33;0.33;;;;;28.13;41.26;101170.72;5078675;27;45557;-76
2023/08/14 04:13:57;;;;;;;;;0.00;0.00;;;;;28.13;41.11;101168.03;5060386;28;45502;-76
2023/08/14 04:16:23;;;;;;;;;0.00;0.00;;;;;28.12;41.47;101169.06;5060478;28;45273;-76
2023/08/14 04:18:58;;;;;;;;;0.00;0.00;;;;;28.03;41.38;101161.28;5078767;27;45448;-76
2023/08/14 04:21:23;;;;;;;;;0.00;0.00;;;;;28.11;41.44;101168.25;5078206;28;46364;-76
2023/08/14 04:23:49;;;;;;;;;1.00;0.00;;;;;28.06;41.02;101155.53;5060100;28;45349;-76
2023/08/14 04:26:14;;;;;;;;;0.00;0.00;;;;;28.12;41.33;101169.06;5060420;27;45210;-76
2023/08/14 04:28:39;;;;;;;;;0.67;0.33;;;;;28.12;40.91;101166.41;5060269;28;45436;-76
2023/08/14 04:31:05;;;;;;;;;3.00;1.00;;;;;28.12;41.20;101169.91;5078398;27;46207;-76
2023/08/14 04:33:30;;;;;;;;;0.00;0.00;;;;;28.11;41.14;101167.41;5078420;27;45209;-76
2023/08/14 04:35:55;;;;;;;;;0.00;0.00;;;;;28.09;41.23;101158.78;5078207;27;45280;-76
2023/08/14 04:38:20;;;;;;;;;1.00;1.00;;;;;28.11;41.49;101175.44;5060195;27;45319;-76
2023/08/14 04:40:46;;;;;;;;;0.67;0.67;;;;;28.11;41.38;101175.44;5060020;28;45595;-76
2023/08/14 04:43:11;;;;;;;;;0.33;0.33;;;;;28.12;41.62;101171.75;5059240;28;45457;-76
2023/08/14 04:45:37;;;;;;;;;0.00;0.00;;;;;28.15;41.66;101192.72;5078248;28;46156;-75
2023/08/14 04:48:02;;;;;;;;;1.00;0.00;;;;;28.10;41.08;101180.00;5078284;27;45356;-76
2023/08/14 04:50:28;;;;;;;;;0.33;0.00;;;;;28.06;41.75;101171.56;5077744;28;45997;-76
2023/08/14 04:52:53;;;;;;;;;0.00;0.00;;;;;28.09;41.35;101172.16;5077694;27;45391;-76
2023/08/14 04:55:18;;;;;;;;;2.00;1.00;;;;;28.10;41.51;101174.66;5059979;28;45391;-76
2023/08/14 04:57:44;;;;;;;;;2.00;0.33;;;;;28.10;41.26;101171.97;5076761;27;45544;-76
2023/08/14 05:00:10;;;;;;;;;0.00;0.00;;;;;28.13;41.32;101176.88;5077775;28;45422;-76
2023/08/14 05:02:35;;;;;;;;;0.00;0.00;;;;;28.11;41.29;101170.91;5076464;27;45487;-76
2023/08/14 05:05:00;;;;;;;;;1.00;1.00;;;;;28.15;41.24;101174.81;5077646;28;45712;-76
2023/08/14 05:07:26;;;;;;;;;0.67;0.33;;;;;28.08;41.08;101163.31;5076264;28;45379;-77
2023/08/14 05:09:51;;;;;;;;;0.00;0.00;;;;;28.16;41.09;101172.94;5076821;27;46350;-76
2023/08/14 05:12:16;;;;;;;;;1.00;1.00;;;;;28.12;40.84;101171.75;5059615;28;45748;-76
2023/08/14 05:14:42;;;;;;;;;0.00;0.00;;;;;28.15;41.05;101182.84;5058880;28;45289;-76
2023/08/14 05:17:07;;;;;;;;;0.67;0.67;;;;;28.17;41.36;101179.94;5059559;27;45344;-76
2023/08/14 05:19:32;;;;;;;;;0.33;0.33;;;;;28.17;41.30;101174.59;5077204;27;46520;-76
2023/08/14 05:21:58;;;;;;;;;0.33;0.00;;;;;28.15;41.25;101174.81;5059737;28;45307;-76
2023/08/14 05:24:24;;;;;;;;;0.00;0.00;;;;;28.14;41.17;101173.16;5076828;27;45871;-76
2023/08/14 05:26:49;;;;;;;;;0.00;0.00;;;;;28.18;40.96;101176.25;5059412;28;45412;-76
2023/08/14 05:29:14;;;;;;;;;0.00;0.00;;;;;28.11;41.41;101173.59;5077404;27;45280;-76
2023/08/14 05:31:40;;;;;;;;;0.33;0.33;;;;;28.11;41.43;101170.91;5077671;28;45367;-76
2023/08/14 05:34:05;;;;;;;;;0.00;0.00;;;;;28.18;40.89;101171.69;5059184;28;45713;-75
2023/08/14 05:36:30;;;;;;;;;0.00;0.00;;;;;28.18;41.47;101170.91;5077373;27;45453;-76
2023/08/14 05:38:56;;;;;;;;;0.00;0.00;;;;;28.20;41.57;101168.81;5077293;27;46174;-76
2023/08/14 05:41:21;;;;;;;;;1.00;0.00;;;;;28.29;40.85;101164.84;5077420;28;45459;-76
2023/08/14 05:43:48;;;;;;;;;0.67;0.67;;;;;28.34;41.31;101152.69;5077311;27;45358;-76
2023/08/14 05:46:14;;;;;;;;;1.00;1.00;;;;;28.49;40.60;101173.81;5077362;28;45297;-76
2023/08/14 05:48:40;;;;;;;;;0.00;0.00;;;;;28.54;40.98;101173.16;5076787;27;45732;-76
2023/08/14 05:51:05;;;;;;;;;4.00;1.00;;;;;28.61;41.03;101181.97;5058993;27;45755;-76
2023/08/14 05:53:30;;;;;;;;;0.00;0.00;;;;;28.68;40.64;101176.53;5077076;28;45470;-77
2023/08/14 05:55:56;;;;;;;;;0.00;0.00;;;;;28.78;40.51;101170.72;5077209;28;45535;-76
2023/08/14 05:58:21;;;;;;;;;0.00;0.00;;;;;28.81;40.32;101167.59;5077073;27;45417;-76
2023/08/14 06:00:46;;;;;;;;;0.00;0.00;;;;;28.99;40.49;101188.22;5077111;27;45262;-76
2023/08/14 06:03:12;;;;;;;;;1.00;1.00;;;;;29.06;39.72;101182.84;5076641;27;45281;-76
2023/08/14 06:05:37;;;;;;;;;0.00;0.00;;;;;29.17;40.06;101187.47;5077178;28;45319;-76
2023/08/14 06:08:04;;;;;;;;;0.00;0.00;;;;;29.33;39.93;101195.19;5076836;28;45708;-77
2023/08/14 06:10:29;;;;;;;;;0.00;0.00;;;;;29.47;39.22;101204.72;5076723;27;45253;-77
2023/08/14 06:12:55;;;;;;;;;0.00;0.00;;;;;29.58;39.12;101197.81;5076880;28;45218;-76
2023/08/14 06:15:20;;;;;;;;;0.00;0.00;;;;;29.70;39.34;101191.66;5058580;28;45579;-77
2023/08/14 06:17:47;;;;;;;;;0.00;0.00;;;;;29.87;38.54;101199.97;5058108;28;48339;-77
2023/08/14 06:20:13;;;;;;;;;0.00;0.00;;;;;29.91;38.89;101194.94;5076413;27;45421;-76
2023/08/14 06:22:43;;;;;;;;;0.00;0.00;;;;;29.95;38.82;101190.78;5076606;28;45450;-77
2023/08/14 06:25:09;;;;;;;;;0.00;0.00;;;;;29.96;38.62;101181.69;5076692;28;45490;-76
2023/08/14 06:27:35;;;;;;;;;0.00;0.00;;;;;29.93;38.77;101169.53;5076239;27;45534;-77
2023/08/14 06:30:00;;;;;;;;;0.00;0.00;;;;;30.00;38.05;101161.44;5076220;27;45320;-77
2023/08/14 06:32:26;;;;;;;;;0.33;0.00;;;;;29.98;38.83;101163.50;5075333;27;45442;-76
2023/08/14 06:34:51;;;;;;;;;0.67;0.67;;;;;30.04;38.83;101156.41;5076506;28;45620;-77
2023/08/14 06:37:16;;;;;;;;;0.00;0.00;;;;;30.20;38.46;101157.63;5058249;28;47850;-77
2023/08/14 06:39:42;;;;;;;;;0.33;0.33;;;;;30.38;38.31;101148.72;5058327;28;46080;-77
2023/08/14 06:42:08;;;;;;;;;0.00;0.00;;;;;30.57;38.24;101145.13;5076653;28;45415;-77
2023/08/14 06:44:34;;;;;;;;;1.00;0.00;;;;;30.71;37.27;101140.34;5076245;28;45515;-76
2023/08/14 06:47:00;;;;;;;;;0.00;0.00;;;;;30.78;37.32;101141.06;5075984;27;45512;-76
2023/08/14 06:49:26;;;;;;;;;0.00;0.00;;;;;30.92;37.75;101143.50;5076354;27;45336;-77
2023/08/14 06:51:51;;;;;;;;;0.00;0.00;;;;;31.01;37.30;101152.06;5058081;28;45512;-77
2023/08/14 06:54:17;;;;;;;;;0.33;0.33;;;;;31.05;37.20;101145.16;5075930;27;45495;-77
2023/08/14 06:56:42;;;;;;;;;0.00;0.00;;;;;31.16;36.50;101149.69;5074747;28;46325;-77
2023/08/14 06:59:08;;;;;;;;;0.00;0.00;;;;;31.25;36.90;101130.53;5076251;27;45265;-77
2023/08/14 07:01:33;;;;;;;;;0.00;0.00;;;;;31.31;36.45;101123.38;5074583;28;45343;-77
2023/08/14 07:03:58;;;;;;;;;0.00;0.00;;;;;31.26;36.46;101135.66;5075989;28;45587;-76
2023/08/14 07:06:24;;;;;;;;;0.00;0.00;;;;;31.10;36.64;101145.25;5075681;28;45356;-76
2023/08/14 07:08:49;;;;;;;;;0.00;0.00;;;;;30.89;37.10;101133.22;5075596;27;45276;-77
2023/08/14 07:11:14;;;;;;;;;0.00;0.00;;;;;30.77;37.16;101130.53;5057842;28;45667;-77
2023/08/14 07:13:40;;;;;;;;;0.00;0.00;;;;;30.60;37.34;101142.78;5075723;27;45589;-77
2023/08/14 07:16:05;;;;;;;;;0.00;0.00;;;;;30.49;37.75;101157.84;5057257;28;47162;-77
2023/08/14 07:18:30;;;;;;;;;0.00;0.00;;;;;30.37;37.53;101149.75;5075286;28;45220;-77
2023/08/14 07:20:58;;;;;;;;;0.00;0.00;;;;;30.25;37.35;101146.19;5076480;27;45298;-77
2023/08/14 07:23:23;;;;;;;;;0.00;0.00;;;;;30.10;38.18;101150.13;5075800;28;45516;-77
2023/08/14 07:25:49;;;;;;;;;1.33;0.00;;;;;30.09;38.00;101161.91;5075541;28;47453;-77
2023/08/14 07:28:16;;;;;;;;;0.00;0.00;;;;;29.99;38.05;101156.28;5075318;28;45435;-77
2023/08/14 07:30:41;;;;;;;;;1.00;1.00;;;;;29.94;38.21;101147.06;5057230;28;45451;-77
2023/08/14 07:33:10;;;;;;;;;0.00;0.00;;;;;29.84;38.68;101139.56;5079196;27;45306;-77
2023/08/14 07:35:37;;;;;;;;;0.00;0.00;;;;;29.84;38.44;101152.13;5079143;28;45752;-77
2023/08/14 07:38:03;;;;;;;;;0.00;0.00;;;;;29.83;38.28;101158.53;5061171;28;45826;-77
2023/08/14 07:40:28;;;;;;;;;1.00;1.00;;;;;29.78;38.80;101148.50;5079259;27;45356;-77
2023/08/14 07:42:54;;;;;;;;;0.00;0.00;;;;;29.79;38.39;101152.00;5061396;27;45362;-77
2023/08/14 07:45:19;;;;;;;;;0.33;0.33;;;;;29.76;38.91;101139.88;5060634;28;48083;-77
2023/08/14 07:47:45;;;;;;;;;0.00;0.00;;;;;29.73;38.43;101137.63;5077980;27;45407;-77
2023/08/14 07:50:10;;;;;;;;;1.00;1.00;;;;;29.76;38.67;101144.41;5061139;27;45344;-77
2023/08/14 07:52:36;;;;;;;;;0.00;0.00;;;;;29.74;38.68;101141.97;5057507;28;45678;-77
2023/08/14 07:55:02;;;;;;;;;0.33;0.33;;;;;29.72;38.84;101136.81;5057408;28;46869;-77
2023/08/14 07:57:28;;;;;;;;;1.00;1.00;;;;;29.69;38.92;101125.69;5057194;28;45344;-77
2023/08/14 07:59:54;;;;;;;;;0.00;0.00;;;;;29.68;38.69;101124.88;5058215;28;45191;-77
2023/08/14 08:02:20;;;;;;;;;0.00;0.00;;;;;29.71;38.44;101131.66;5058517;28;45174;-77
2023/08/14 08:04:45;;;;;;;;;0.00;0.00;;;;;29.68;38.75;101137.47;5057685;28;45286;-77
2023/08/14 08:07:10;;;;;;;;;0.00;0.00;;;;;29.70;38.49;101136.19;5058426;28;45329;-77
2023/08/14 08:09:36;;;;;;;;;0.00;0.00;;;;;29.69;38.74;101129.19;5067697;27;45225;-77
2023/08/14 08:12:01;;;;;;;;;0.00;0.00;;;;;29.71;39.03;101145.06;5079068;28;45616;-77
2023/08/14 08:14:27;;;;;;;;;0.00;0.00;;;;;29.68;39.34;101138.28;5060066;28;47165;-77
2023/08/14 08:16:52;;;;;;;;;1.00;0.00;;;;;29.66;39.17;101128.81;5078205;27;45419;-77
2023/08/14 08:19:18;;;;;;;;;0.00;0.00;;;;;29.66;38.87;101132.34;5078924;28;45387;-77
2023/08/14 08:21:43;;;;;;;;;1.00;1.00;;;;;29.67;39.24;101133.94;5078826;27;45381;-77
2023/08/14 08:24:09;;;;;;;;;0.00;0.00;;;;;29.68;38.83;101127.56;5078250;27;46138;-78
2023/08/14 08:26:35;;;;;;;;;0.67;0.67;;;;;29.68;39.24;101121.38;5078391;28;45450;-77
2023/08/14 08:29:01;;;;;;;;;0.00;0.00;;;;;29.67;39.27;101122.41;5077810;28;45407;-76
2023/08/14 08:31:26;;;;;;;;;2.00;0.00;;;;;29.65;39.04;101117.28;5060360;28;45464;-77
2023/08/14 08:33:52;;;;;;;;;1.00;1.00;;;;;29.61;38.87;101111.53;5077674;28;46459;-77
2023/08/14 08:36:17;;;;;;;;;0.33;0.33;;;;;29.68;39.17;101118.69;5060052;28;45670;-76
2023/08/14 08:38:46;;;;;;;;;0.00;0.00;;;;;29.63;39.02;101108.66;5078267;27;45516;-77
2023/08/14 08:41:14;;;;;;;;;0.00;0.00;;;;;29.68;39.14;101113.31;5060282;28;45388;-77
2023/08/14 08:43:40;;;;;;;;;1.00;1.00;;;;;29.67;39.33;101117.03;5076386;28;46559;-77
2023/08/14 08:46:09;;;;;;;;;1.00;1.00;;;;;29.60;39.36;101096.50;5059965;28;45298;-77
2023/08/14 08:48:37;;;;;;;;;0.00;0.00;;;;;29.61;39.09;101095.47;5078325;27;45147;-77
2023/08/14 08:51:04;;;;;;;;;0.00;0.00;;;;;29.64;39.25;101112.94;5078278;27;45494;-77
2023/08/14 08:53:29;;;;;;;;;1.67;0.33;;;;;29.53;38.85;101095.78;5055175;28;47927;-77
2023/08/14 08:55:55;;;;;;;;;0.00;0.00;;;;;29.61;39.31;101108.06;5056143;28;45611;-77
2023/08/14 08:58:21;;;;;;;;;0.00;0.00;;;;;29.57;39.36;101105.00;5056838;28;45481;-77
2023/08/14 09:00:47;;;;;;;;;0.00;0.00;;;;;29.57;39.33;101096.13;5057850;28;45600;-77
2023/08/14 09:03:12;;;;;;;;;1.33;0.33;;;;;29.56;39.39;101092.63;5057781;28;46894;-77
2023/08/14 09:05:39;;;;;;;;;0.00;0.00;;;;;29.57;39.33;101105.00;5057599;28;45389;-77
2023/08/14 09:08:05;;;;;;;;;0.67;0.67;;;;;29.64;39.35;101112.94;5057912;28;45459;-77
2023/08/14 09:10:30;;;;;;;;;0.67;0.67;;;;;29.64;39.42;101118.31;5074389;27;45431;-77
2023/08/14 09:12:56;;;;;;;;;0.00;0.00;;;;;29.63;39.44;101114.84;5059534;28;46979;-77
2023/08/14 09:15:25;;;;;;;;;0.00;0.00;;;;;29.61;39.35;101110.75;5077662;27;45579;-77
2023/08/14 09:17:51;;;;;;;;;0.00;0.00;;;;;29.62;39.43;101112.38;5077825;27;45275;-77
2023/08/14 09:20:18;;;;;;;;;0.00;0.00;;;;;29.60;39.23;101111.78;5077622;28;45205;-77
2023/08/14 09:22:44;;;;;;;;;0.00;0.00;;;;;29.64;39.49;101107.59;5077482;27;47470;-77
2023/08/14 09:25:10;;;;;;;;;1.00;0.00;;;;;29.64;39.40;101104.91;5077333;27;45324;-76
2023/08/14 09:27:36;;;;;;;;;0.00;0.00;;;;;29.61;39.51;101095.47;5076985;27;45305;-77
2023/08/14 09:30:01;;;;;;;;;0.00;0.00;;;;;29.53;39.20;101077.03;5076693;28;45178;-77
2023/08/14 09:32:27;;;;;;;;;0.00;0.00;;;;;29.60;39.23;101096.50;5077267;27;45596;-77
2023/08/14 09:35:02;;;;;;;;;0.00;0.00;;;;;29.63;39.05;101104.13;5076984;27;45433;-77
2023/08/14 09:37:29;;;;;;;;;1.00;0.00;;;;;29.62;39.78;101097.09;5077436;28;45321;-77
2023/08/14 09:40:06;;;;;;;;;0.00;0.00;;;;;29.62;39.45;101099.78;5077093;28;45297;-77
2023/08/14 09:42:32;;;;;;;;;0.33;0.00;;;;;29.58;39.40;101092.44;5076392;27;46529;-76
2023/08/14 09:44:57;;;;;;;;;0.00;0.00;;;;;29.59;39.22;101088.69;5076643;27;45459;-77
2023/08/14 09:47:23;;;;;;;;;0.67;0.67;;;;;29.55;39.58;101087.50;5077389;28;45281;-77
2023/08/14 09:49:48;;;;;;;;;0.00;0.00;;;;;29.55;39.35;101084.84;5077192;27;45274;-77
2023/08/14 09:52:13;;;;;;;;;1.00;1.00;;;;;29.55;39.59;101085.66;5055243;28;48643;-77
2023/08/14 09:54:39;;;;;;;;;0.00;0.00;;;;;29.51;39.41;101077.22;5056162;28;45356;-77
2023/08/14 09:57:05;;;;;;;;;0.00;0.00;;;;;29.54;39.41;101070.59;5057043;28;45273;-77
2023/08/14 09:59:30;;;;;;;;;0.00;0.00;;;;;29.52;39.46;101064.66;5056814;28;45296;-77
2023/08/14 10:01:58;;;;;;;;;1.00;1.00;;;;;29.58;39.51;101074.50;5055390;28;48432;-76
2023/08/14 10:04:26;;;;;;;;;0.00;0.00;;;;;29.53;39.62;101063.63;5056866;28;45427;-77
2023/08/14 10:06:52;;;;;;;;;0.67;0.67;;;;;29.55;39.29;101058.03;5056598;28;45231;-77
2023/08/14 10:09:25;;;;;;;;;2.00;0.33;;;;;29.57;39.15;101066.66;5063000;27;45392;-77
2023/08/14 10:11:54;;;;;;;;;1.00;1.00;;;;;29.57;39.37;101067.47;5076847;28;45445;-77
2023/08/14 10:14:23;;;;;;;;;0.67;0.00;;;;;29.57;39.60;101061.28;5076740;27;45414;-77
2023/08/14 10:16:54;;;;;;;;;0.67;0.67;;;;;29.51;39.33;101060.31;5076652;27;45404;-77
2023/08/14 10:19:23;;;;;;;;;0.67;0.67;;;;;29.52;39.63;101059.28;5077050;27;45284;-77
2023/08/14 10:21:52;;;;;;;;;1.00;0.00;;;;;29.50;39.68;101054.19;5075832;28;45435;-77
2023/08/14 10:24:18;;;;;;;;;0.00;0.00;;;;;29.50;39.63;101048.81;5075271;28;45386;-77
2023/08/14 10:26:45;;;;;;;;;0.00;0.00;;;;;29.49;39.45;101046.34;5075601;27;45378;-77
2023/08/14 10:29:12;;;;;;;;;0.67;0.67;;;;;29.37;39.82;101031.03;5076325;27;45517;-78
2023/08/14 10:31:38;;;;;;;;;1.00;1.00;;;;;29.46;39.76;101034.22;5076387;27;46384;-77
2023/08/14 10:34:05;;;;;;;;;1.00;1.00;;;;;29.39;39.68;101025.44;5076434;28;45552;-78
2023/08/14 10:36:30;;;;;;;;;0.00;0.00;;;;;29.43;39.43;101032.00;5076610;27;45416;-77
2023/08/14 10:39:12;;;;;;;;;0.00;0.00;;;;;29.43;39.67;101017.78;5075955;27;45384;-77
2023/08/14 10:41:37;;;;;;;;;0.00;0.00;;;;;29.48;39.70;101026.78;5058209;28;46619;-77
2023/08/14 10:44:07;;;;;;;;;0.00;0.00;;;;;29.49;39.82;101024.91;5076012;28;45349;-77
2023/08/14 10:46:42;;;;;;;;;0.00;0.00;;;;;29.41;39.65;101020.69;5076151;28;45268;-77
2023/08/14 10:49:07;;;;;;;;;1.00;1.00;;;;;29.47;39.64;101046.59;5058134;28;45474;-77
2023/08/14 10:51:33;;;;;;;;;0.00;0.00;;;;;29.50;39.99;101037.28;5075823;28;45343;-78
2023/08/14 10:54:14;;;;;;;;;1.00;1.00;;;;;29.49;39.84;101032.94;5076004;28;45600;-77
2023/08/14 10:56:47;;;;;;;;;0.00;0.00;;;;;29.49;39.64;101017.69;5076389;27;45384;-77
2023/08/14 10:59:23;;;;;;;;;1.00;1.00;;;;;29.44;39.81;101003.31;5076086;28;45303;-77
2023/08/14 11:01:51;;;;;;;;;0.33;0.33;;;;;29.47;39.74;101022.47;5075899;27;46345;-77
2023/08/14 11:04:17;;;;;;;;;0.00;0.00;;;;;29.42;39.70;101005.41;5075999;27;45379;-77
2023/08/14 11:06:58;;;;;;;;;0.67;0.67;;;;;29.46;39.84;101020.81;5073519;27;45470;-77
2023/08/14 11:09:25;;;;;;;;;1.00;1.00;;;;;29.39;39.91;101002.16;5076088;27;45444;-77
2023/08/14 11:11:55;;;;;;;;;0.00;0.00;;;;;29.44;39.98;100996.09;5076128;28;46736;-77
2023/08/14 11:14:20;;;;;;;;;1.00;1.00;;;;;29.41;39.96;101012.63;5075779;28;45466;-77
2023/08/14 11:16:49;;;;;;;;;0.67;0.67;;;;;29.41;39.76;101007.28;5076068;28;45383;-77
2023/08/14 11:19:17;;;;;;;;;0.00;0.00;;;;;29.36;40.03;101007.13;5076055;28;45386;-77
2023/08/14 11:21:45;;;;;;;;;0.00;0.00;;;;;29.28;40.01;101000.22;5075495;28;46062;-77